Time;durP1;ratioP1;P1;durP2;ratioP2;P2;SDS_P1;SDS_P2;PMS_P1;PMS_P2;Temp;Humidity;BMP_temperature;BMP_pressure;BME280_temperature;BME280_humidity;BME280_pressure;Samples;Min_cycle;Max_cycle;Signal;HPM_P1;HPM_P2
2024/01/08 00:00:46;;;;;;;0.80;0.80;;;;;;;10.31;100.00;95376.53;4987817;28;20054;-69
2024/01/08 00:03:13;;;;;;;0.80;0.80;;;;;;;10.31;100.00;95367.44;4987969;28;20100;-69
2024/01/08 00:05:40;;;;;;;0.88;0.88;;;;;;;10.32;100.00;95369.81;4987729;28;20057;-69
2024/01/08 00:08:07;;;;;;;0.80;0.80;;;;;;;10.31;100.00;95378.50;4987425;28;20488;-68
2024/01/08 00:10:37;;;;;;;0.80;0.80;;;;;;;10.26;100.00;95368.69;4987204;28;20566;-68
2024/01/08 00:13:04;;;;;;;0.80;0.80;;;;;;;9.42;100.00;95263.50;4987698;28;20536;-68
2024/01/08 00:15:31;;;;;;;0.80;0.80;;;;;;;10.08;100.00;95378.34;4987604;28;20129;-68
2024/01/08 00:17:58;;;;;;;0.80;0.80;;;;;;;10.06;100.00;95375.94;4987494;28;20078;-68
2024/01/08 00:20:25;;;;;;;0.70;0.70;;;;;;;10.14;100.00;95373.94;4987196;28;20062;-68
2024/01/08 00:22:52;;;;;;;0.80;0.80;;;;;;;9.91;100.00;95365.41;4987390;28;20596;-69
2024/01/08 00:25:22;;;;;;;0.80;0.80;;;;;;;9.52;100.00;95302.09;4985644;28;20053;-69
2024/01/08 00:27:50;;;;;;;0.90;0.90;;;;;;;10.00;100.00;95383.09;4987219;28;20133;-69
2024/01/08 00:30:17;;;;;;;0.73;0.73;;;;;;;10.04;100.00;95383.84;4985621;28;20058;-68
2024/01/08 00:32:45;;;;;;;0.80;0.80;;;;;;;10.02;100.00;95375.16;4985833;28;20604;-68
2024/01/08 00:35:12;;;;;;;0.70;0.70;;;;;;;9.99;100.00;95386.28;4987120;28;20128;-69
2024/01/08 00:37:41;;;;;;;0.70;0.70;;;;;;;9.75;100.00;95343.00;4985603;28;20054;-69
2024/01/08 00:40:09;;;;;;;0.80;0.80;;;;;;;9.97;100.00;95372.88;4985693;28;20072;-68
2024/01/08 00:42:37;;;;;;;0.80;0.80;;;;;;;9.75;100.00;95354.84;4986922;28;20065;-69
2024/01/08 00:45:05;;;;;;;0.80;0.80;;;;;;;9.80;100.00;95357.16;4985537;28;20057;-69
2024/01/08 00:47:32;;;;;;;0.82;0.82;;;;;;;9.97;100.00;95367.34;4986476;28;20497;-69
2024/01/08 00:50:00;;;;;;;0.77;0.77;;;;;;;10.24;100.00;95415.34;4986633;28;20055;-69
2024/01/08 00:52:28;;;;;;;0.80;0.80;;;;;;;9.11;100.00;95298.41;4984591;28;20054;-68
2024/01/08 00:54:58;;;;;;;0.80;0.80;;;;;;;9.60;100.00;95375.47;4986924;28;20073;-69
2024/01/08 00:57:25;;;;;;;0.80;0.80;;;;;;;9.95;100.00;95415.94;4989662;28;20062;-70
2024/01/08 00:59:52;;;;;;;0.80;0.80;;;;;;;9.68;100.00;95377.00;4986983;28;20069;-69
2024/01/08 01:02:18;;;;;;;0.80;0.80;;;;;;;10.01;100.00;95412.31;4986483;28;20138;-68
2024/01/08 01:04:45;;;;;;;0.80;0.80;;;;;;;10.05;100.00;95412.31;4986662;28;20137;-68
2024/01/08 01:07:12;;;;;;;0.90;0.90;;;;;;;10.11;100.00;95405.97;4984806;28;20129;-69
2024/01/08 01:09:39;;;;;;;0.80;0.80;;;;;;;10.13;100.00;95403.56;4986809;28;20140;-68
2024/01/08 01:12:06;;;;;;;0.80;0.80;;;;;;;9.72;100.00;95361.16;4985906;28;20058;-68
2024/01/08 01:14:33;;;;;;;0.80;0.80;;;;;;;10.07;100.00;95410.72;4986694;28;20054;-69
2024/01/08 01:17:00;;;;;;;0.70;0.70;;;;;;;9.79;100.00;95382.47;4986027;28;20078;-68
2024/01/08 01:19:26;;;;;;;0.80;0.80;;;;;;;9.65;100.00;95394.41;4985002;28;20156;-68
2024/01/08 01:21:53;;;;;;;0.80;0.80;;;;;;;9.61;100.00;95365.22;4986208;28;20053;-68
2024/01/08 01:24:20;;;;;;;0.80;0.80;;;;;;;9.97;100.00;95411.59;4986176;28;20261;-69
2024/01/08 01:26:47;;;;;;;0.80;0.80;;;;;;;9.87;100.00;95400.56;4986003;28;20532;-68
2024/01/08 01:29:14;;;;;;;0.85;0.85;;;;;;;10.07;100.00;95413.50;4986456;28;20499;-68
2024/01/08 01:31:40;;;;;;;0.70;0.70;;;;;;;9.93;100.00;95387.88;4984738;28;20541;-69
2024/01/08 01:34:09;;;;;;;0.80;0.80;;;;;;;9.34;100.00;95312.50;4986455;28;20065;-69
2024/01/08 01:36:37;;;;;;;0.80;0.80;;;;;;;10.02;100.00;95408.34;4984450;28;20140;-69
2024/01/08 01:39:04;;;;;;;0.80;0.80;;;;;;;10.02;100.00;95408.34;4985863;28;20062;-67
2024/01/08 01:41:32;;;;;;;0.80;0.80;;;;;;;9.53;100.00;95325.75;4985488;28;20057;-70
2024/01/08 01:43:59;;;;;;;0.80;0.80;;;;;;;10.07;100.00;95410.72;4985635;28;20065;-69
2024/01/08 01:46:46;;;;;;;0.80;0.80;;;;;;;10.07;100.00;95410.72;4985925;28;20054;-69
2024/01/08 01:49:14;;;;;;;0.80;0.80;;;;;;;9.94;100.00;95406.84;4984537;28;20053;-69
2024/01/08 01:51:43;;;;;;;0.80;0.80;;;;;;;10.03;100.00;95409.94;4984364;28;20136;-70
2024/01/08 01:54:12;;;;;;;0.80;0.80;;;;;;;9.63;100.00;95363.63;4985627;28;20957;-69
2024/01/08 01:56:40;;;;;;;0.70;0.70;;;;;;;10.03;100.00;95404.41;4984959;28;20060;-69
2024/01/08 01:59:08;;;;;;;0.80;0.80;;;;;;;10.04;100.00;95400.44;4985708;28;20077;-69
2024/01/08 02:01:35;;;;;;;0.73;0.73;;;;;;;10.17;100.00;95409.06;4984167;28;20524;-70
2024/01/08 02:04:03;;;;;;;0.80;0.80;;;;;;;10.10;100.00;95404.38;4983488;28;20094;-69
2024/01/08 02:06:30;;;;;;;0.80;0.80;;;;;;;10.04;100.00;95405.97;4985437;28;20144;-69
2024/01/08 02:08:57;;;;;;;0.90;0.90;;;;;;;9.31;100.00;95293.16;4985321;28;20085;-68
2024/01/08 02:11:24;;;;;;;0.80;0.80;;;;;;;10.01;100.00;95417.84;4984256;28;20965;-69
2024/01/08 02:13:51;;;;;;;0.80;0.80;;;;;;;10.02;100.00;95408.34;4984029;28;20054;-69
2024/01/08 02:16:18;;;;;;;0.80;0.80;;;;;;;10.01;100.00;95415.09;4983709;28;20051;-69
2024/01/08 02:18:46;;;;;;;0.80;0.80;;;;;;;9.30;100.00;95305.41;4984056;28;20058;-69
2024/01/08 02:21:13;;;;;;;0.80;0.80;;;;;;;9.48;100.00;95323.44;4984664;28;20062;-70
2024/01/08 02:23:40;;;;;;;0.88;0.88;;;;;;;10.08;100.00;95431.69;4984885;28;20061;-70
2024/01/08 02:26:07;;;;;;;0.80;0.80;;;;;;;9.18;100.00;95276.28;4983749;28;20062;-70
2024/01/08 02:28:34;;;;;;;0.80;0.80;;;;;;;10.07;100.00;95421.78;4983667;28;20060;-69
2024/01/08 02:31:01;;;;;;;0.80;0.80;;;;;;;10.10;100.00;95426.50;4985254;28;20058;-69
2024/01/08 02:33:28;;;;;;;0.80;0.80;;;;;;;10.10;100.00;95420.97;4983500;28;20061;-70
2024/01/08 02:35:57;;;;;;;0.70;0.70;;;;;;;9.35;100.00;95429.31;4984873;28;20116;-70
2024/01/08 02:38:24;;;;;;;0.70;0.70;;;;;;;8.88;100.00;95384.50;4983660;28;20060;-70
2024/01/08 02:40:51;;;;;;;0.80;0.80;;;;;;;9.30;100.00;95424.97;4983673;28;20054;-71
2024/01/08 02:43:18;;;;;;;0.70;0.70;;;;;;;9.03;100.00;95423.91;4983203;28;20042;-71
2024/01/08 02:45:44;;;;;;;0.75;0.75;;;;;;;9.23;100.00;95438.84;4985206;28;20485;-70
2024/01/08 02:48:11;;;;;;;0.60;0.60;;;;;;;9.03;100.00;95379.72;4999736;28;20053;-71
2024/01/08 02:50:38;;;;;;;0.80;0.80;;;;;;;8.98;100.00;95360.78;4984844;28;20112;-70
2024/01/08 02:53:05;;;;;;;0.80;0.80;;;;;;;9.36;100.00;95434.41;4984943;28;20104;-70
2024/01/08 02:55:32;;;;;;;0.70;0.70;;;;;;;9.43;100.00;95442.69;4984660;28;20057;-70
2024/01/08 02:58:03;;;;;;;0.80;0.80;;;;;;;8.60;100.00;95312.06;4984546;28;20551;-70
2024/01/08 03:00:30;;;;;;;0.80;0.80;;;;;;;8.56;100.00;95294.72;4984768;28;20054;-70
2024/01/08 03:02:57;;;;;;;0.80;0.80;;;;;;;9.16;100.00;95378.09;4985589;28;20509;-69
2024/01/08 03:05:24;;;;;;;0.80;0.80;;;;;;;9.63;100.00;95445.75;4983322;28;20077;-69
2024/01/08 03:07:51;;;;;;;0.75;0.75;;;;;;;9.64;100.00;95437.03;4984546;28;20054;-69
2024/01/08 03:10:18;;;;;;;0.80;0.80;;;;;;;8.77;100.00;95294.66;4984877;28;20050;-70
2024/01/08 03:12:45;;;;;;;0.73;0.73;;;;;;;9.59;100.00;95429.19;4999208;28;20062;-70
2024/01/08 03:15:12;;;;;;;0.77;0.77;;;;;;;9.77;100.00;95456.75;4985495;28;20054;-69
2024/01/08 03:17:38;;;;;;;0.80;0.80;;;;;;;8.90;100.00;95342.69;4988683;28;20062;-70
2024/01/08 03:20:08;;;;;;;0.80;0.80;;;;;;;9.34;100.00;95449.84;4988897;28;20116;-69
2024/01/08 03:22:35;;;;;;;0.80;0.80;;;;;;;9.21;100.00;95392.25;4988248;28;20058;-69
2024/01/08 03:25:03;;;;;;;0.80;0.80;;;;;;;9.39;100.00;95450.19;4988386;28;20050;-69
2024/01/08 03:27:29;;;;;;;0.80;0.80;;;;;;;9.26;100.00;95404.88;5003143;28;20274;-69
2024/01/08 03:29:56;;;;;;;0.80;0.80;;;;;;;8.51;100.00;95270.31;4987254;28;20113;-70
2024/01/08 03:32:23;;;;;;;0.80;0.80;;;;;;;9.55;100.00;95483.69;4986969;28;20791;-69
2024/01/08 03:34:50;;;;;;;0.80;0.80;;;;;;;9.56;100.00;95465.13;4988188;28;20522;-70
2024/01/08 03:37:17;;;;;;;0.80;0.80;;;;;;;8.86;100.00;95344.69;4988112;28;20050;-72
2024/01/08 03:39:44;;;;;;;0.80;0.80;;;;;;;9.57;100.00;95456.44;4988291;28;20444;-69
2024/01/08 03:42:11;;;;;;;0.80;0.80;;;;;;;7.06;100.00;95054.97;4987966;28;20051;-70
2024/01/08 03:44:37;;;;;;;0.80;0.80;;;;;;;8.78;100.00;95340.38;5002801;28;20683;-70
2024/01/08 03:47:04;;;;;;;0.70;0.70;;;;;;;9.36;100.00;95426.13;4986513;28;20054;-70
2024/01/08 03:49:31;;;;;;;0.80;0.80;;;;;;;9.61;100.00;95479.31;4986405;28;20136;-68
2024/01/08 03:51:58;;;;;;;0.80;0.80;;;;;;;9.57;100.00;95478.56;4987474;28;20054;-70
2024/01/08 03:54:25;;;;;;;0.80;0.80;;;;;;;9.26;100.00;95420.66;4986713;28;20082;-70
2024/01/08 03:56:52;;;;;;;0.70;0.70;;;;;;;7.18;100.00;95106.84;4986979;28;20057;-69
2024/01/08 03:59:19;;;;;;;0.80;0.80;;;;;;;9.24;100.00;95468.03;4987883;28;20046;-69
2024/01/08 04:01:46;;;;;;;0.80;0.80;;;;;;;9.16;100.00;95469.25;4987344;28;20730;-69
2024/01/08 04:04:14;;;;;;;0.80;0.80;;;;;;;9.12;100.00;95460.16;4987620;28;20445;-70
2024/01/08 04:06:41;;;;;;;0.70;0.70;;;;;;;9.37;100.00;95494.03;4987279;28;20134;-71
2024/01/08 04:09:07;;;;;;;0.70;0.70;;;;;;;9.05;100.00;95468.47;4987893;28;20089;-71
2024/01/08 04:11:34;;;;;;;0.70;0.70;;;;;;;9.23;100.00;95503.16;4987404;28;20436;-70
2024/01/08 04:14:01;;;;;;;0.75;0.75;;;;;;;9.12;100.00;95482.25;4987479;28;20060;-70
2024/01/08 04:16:28;;;;;;;0.70;0.70;;;;;;;9.26;100.00;95520.13;4987135;28;20057;-70
2024/01/08 04:18:54;;;;;;;0.80;0.80;;;;;;;9.20;100.00;95505.91;4987589;28;20054;-70
2024/01/08 04:21:21;;;;;;;0.80;0.80;;;;;;;9.22;100.00;95503.53;4987158;28;20089;-70
2024/01/08 04:23:48;;;;;;;0.75;0.75;;;;;;;9.11;100.00;95491.75;4987009;28;20073;-71
2024/01/08 04:26:16;;;;;;;0.70;0.70;;;;;;;9.31;100.00;95517.72;5001239;28;20132;-70
2024/01/08 04:28:43;;;;;;;0.80;0.80;;;;;;;9.26;100.00;95526.44;4987449;28;20046;-70
2024/01/08 04:31:18;;;;;;;0.73;0.73;;;;;;;8.82;100.00;95463.41;4985545;28;20101;-69
2024/01/08 04:33:45;;;;;;;0.70;0.70;;;;;;;9.29;100.00;95520.13;4987307;28;20066;-70
2024/01/08 04:36:13;;;;;;;0.80;0.80;;;;;;;9.29;100.00;95528.41;4986958;28;20062;-70
2024/01/08 04:38:40;;;;;;;0.80;0.80;;;;;;;9.36;100.00;95528.38;4986948;28;20058;-69
2024/01/08 04:41:08;;;;;;;0.73;0.73;;;;;;;9.32;100.00;95519.31;4986630;28;20058;-69
2024/01/08 04:43:35;;;;;;;0.73;0.73;;;;;;;8.27;100.00;95365.72;4986773;28;20497;-70
2024/01/08 04:46:01;;;;;;;0.80;0.80;;;;;;;9.36;100.00;95549.72;4986532;28;20061;-70
2024/01/08 04:48:28;;;;;;;0.70;0.70;;;;;;;9.09;100.00;95527.25;4986573;28;20436;-69
2024/01/08 04:50:55;;;;;;;0.80;0.80;;;;;;;9.27;100.00;95544.59;4986828;28;20801;-69
2024/01/08 04:53:22;;;;;;;0.70;0.70;;;;;;;9.29;100.00;95553.28;4986804;28;20046;-69
2024/01/08 04:55:48;;;;;;;0.70;0.70;;;;;;;9.12;100.00;95521.72;4986910;28;20093;-70
2024/01/08 04:58:15;;;;;;;0.70;0.70;;;;;;;9.00;100.00;95524.13;4986937;28;20082;-72
2024/01/08 05:00:42;;;;;;;0.77;0.77;;;;;;;9.02;100.00;95539.13;4986640;28;20058;-71
2024/01/08 05:03:09;;;;;;;0.70;0.70;;;;;;;9.31;100.00;95561.94;4985265;28;20112;-71
2024/01/08 05:05:36;;;;;;;0.70;0.70;;;;;;;8.97;100.00;95519.38;4986752;28;20057;-71
2024/01/08 05:08:04;;;;;;;0.77;0.77;;;;;;;8.88;100.00;95499.69;4986454;28;20532;-72
2024/01/08 05:10:31;;;;;;;0.80;0.80;;;;;;;9.26;100.00;95581.69;4985483;28;20086;-71
2024/01/08 05:12:57;;;;;;;0.70;0.70;;;;;;;8.18;100.00;95408.66;4986771;28;20050;-71
2024/01/08 05:15:24;;;;;;;0.75;0.75;;;;;;;8.98;100.00;95532.00;4986562;28;20054;-72
2024/01/08 05:17:51;;;;;;;0.70;0.70;;;;;;;9.06;100.00;95561.19;4984465;28;20100;-71
2024/01/08 05:20:18;;;;;;;0.77;0.77;;;;;;;9.36;100.00;95586.41;4984715;28;20052;-72
2024/01/08 05:22:46;;;;;;;0.70;0.70;;;;;;;8.52;100.00;95454.00;4986280;28;20065;-71
2024/01/08 05:25:13;;;;;;;0.73;0.73;;;;;;;9.10;100.00;95535.13;4985968;28;20149;-71
2024/01/08 05:27:39;;;;;;;0.80;0.80;;;;;;;9.07;100.00;95584.88;4986238;28;20621;-71
2024/01/08 05:30:07;;;;;;;0.80;0.80;;;;;;;9.28;100.00;95564.72;4986767;28;20054;-71
2024/01/08 05:32:34;;;;;;;0.80;0.80;;;;;;;9.31;100.00;95555.63;4984469;28;20065;-71
2024/01/08 05:35:01;;;;;;;0.77;0.77;;;;;;;9.10;100.00;95567.50;4986270;28;20121;-71
2024/01/08 05:37:28;;;;;;;0.70;0.70;;;;;;;9.36;100.00;95591.91;4985169;28;20054;-71
2024/01/08 05:39:55;;;;;;;0.70;0.70;;;;;;;9.45;100.00;95624.69;4984624;28;20062;-71
2024/01/08 05:42:21;;;;;;;0.80;0.80;;;;;;;9.45;100.00;95616.38;4985671;28;20054;-71
2024/01/08 05:44:48;;;;;;;0.73;0.73;;;;;;;9.31;100.00;95617.19;4986171;28;20050;-71
2024/01/08 05:47:15;;;;;;;0.70;0.70;;;;;;;7.98;100.00;95429.53;4985076;28;20145;-72
2024/01/08 05:49:43;;;;;;;0.80;0.80;;;;;;;8.52;100.00;95498.16;5000463;28;20100;-74
2024/01/08 05:52:11;;;;;;;0.80;0.80;;;;;;;8.38;100.00;95532.03;4985265;28;20061;-72
2024/01/08 05:54:38;;;;;;;0.70;0.70;;;;;;;9.17;100.00;95615.25;4983944;28;20055;-72
2024/01/08 05:57:04;;;;;;;0.70;0.70;;;;;;;8.38;100.00;95503.63;4985281;28;20054;-72
2024/01/08 05:59:34;;;;;;;0.80;0.80;;;;;;;8.72;100.00;95573.84;4985477;28;20050;-74
2024/01/08 06:02:04;;;;;;;0.70;0.70;;;;;;;9.15;100.00;95636.16;4983974;28;20058;-71
2024/01/08 06:04:31;;;;;;;0.80;0.80;;;;;;;8.53;100.00;95549.38;4982862;28;20145;-71
2024/01/08 06:06:58;;;;;;;0.70;0.70;;;;;;;9.16;100.00;95643.25;4982544;28;20058;-72
2024/01/08 06:09:25;;;;;;;0.77;0.77;;;;;;;9.17;100.00;95666.91;4983976;28;20433;-72
2024/01/08 06:11:52;;;;;;;0.70;0.70;;;;;;;8.57;100.00;95552.91;4984082;28;20390;-73
2024/01/08 06:14:19;;;;;;;0.80;0.80;;;;;;;9.20;100.00;95655.09;4984090;28;20046;-72
2024/01/08 06:16:46;;;;;;;0.80;0.80;;;;;;;9.13;100.00;95655.09;4982536;28;20563;-72
2024/01/08 06:19:12;;;;;;;0.73;0.73;;;;;;;9.08;100.00;95614.06;4983904;28;20246;-71
2024/01/08 06:21:39;;;;;;;0.70;0.70;;;;;;;9.37;100.00;95659.84;4983489;28;20077;-72
2024/01/08 06:24:06;;;;;;;0.70;0.70;;;;;;;8.98;100.00;95661.78;4984884;28;20065;-72
2024/01/08 06:26:33;;;;;;;0.70;0.70;;;;;;;9.04;100.00;95646.44;4983641;28;20061;-73
2024/01/08 06:29:00;;;;;;;0.70;0.70;;;;;;;7.95;100.00;95457.88;4985238;28;20053;-71
2024/01/08 06:31:27;;;;;;;0.80;0.80;;;;;;;9.18;100.00;95640.91;4984787;28;20062;-72
2024/01/08 06:33:54;;;;;;;0.70;0.70;;;;;;;9.18;100.00;95680.34;4984882;28;20057;-72
2024/01/08 06:36:21;;;;;;;0.80;0.80;;;;;;;9.39;100.00;95696.13;4983335;28;20448;-72
2024/01/08 06:38:48;;;;;;;0.80;0.80;;;;;;;8.88;100.00;95623.94;4983658;28;20069;-72
2024/01/08 06:41:15;;;;;;;0.70;0.70;;;;;;;8.65;100.00;95560.03;4983475;28;20050;-73
2024/01/08 06:43:41;;;;;;;0.70;0.70;;;;;;;9.61;100.00;95697.69;4985084;28;20602;-72
2024/01/08 06:46:08;;;;;;;0.80;0.80;;;;;;;9.65;100.00;95698.50;4989183;28;20084;-73
2024/01/08 06:48:35;;;;;;;0.80;0.80;;;;;;;9.53;100.00;95667.72;4984379;28;20086;-75
2024/01/08 06:51:02;;;;;;;0.70;0.70;;;;;;;7.33;100.00;95319.66;4985086;28;20569;-73
2024/01/08 06:53:29;;;;;;;0.73;0.73;;;;;;;9.77;100.00;95711.88;4985091;28;20054;-71
2024/01/08 06:55:56;;;;;;;0.80;0.80;;;;;;;9.08;100.00;95597.50;4984041;28;20270;-70
2024/01/08 06:58:23;;;;;;;0.80;0.80;;;;;;;9.87;100.00;95722.16;4983851;28;20062;-70
2024/01/08 07:00:50;;;;;;;0.73;0.73;;;;;;;9.87;100.00;95735.97;4982375;28;20046;-66
2024/01/08 07:03:17;;;;;;;0.80;0.80;;;;;;;9.98;100.00;95734.00;4983854;28;20466;-70
2024/01/08 07:05:44;;;;;;;0.80;0.80;;;;;;;9.06;100.00;95588.81;4984761;28;20058;-71
2024/01/08 07:08:14;;;;;;;0.80;0.80;;;;;;;9.48;100.00;95657.84;5002480;28;20412;-68
2024/01/08 07:10:41;;;;;;;0.90;0.90;;;;;;;9.45;100.00;95718.66;5003642;28;20480;-72
2024/01/08 07:13:08;;;;;;;0.80;0.80;;;;;;;10.11;100.00;95754.56;5002570;28;20072;-73
2024/01/08 07:15:35;;;;;;;0.80;0.80;;;;;;;9.92;100.00;95724.53;5001071;28;20058;-73
2024/01/08 07:18:03;;;;;;;0.90;0.90;;;;;;;10.22;100.00;95758.09;4993419;28;20088;-77
2024/01/08 07:20:30;;;;;;;0.70;0.70;;;;;;;8.79;100.00;95540.69;4990219;28;20054;-75
2024/01/08 07:22:57;;;;;;;0.80;0.80;;;;;;;9.42;100.00;95664.94;4983819;28;20155;-71
2024/01/08 07:25:23;;;;;;;0.80;0.80;;;;;;;9.51;100.00;95704.03;4982898;28;20430;-75
2024/01/08 07:27:50;;;;;;;0.80;0.80;;;;;;;9.77;100.00;95700.06;4983838;28;20533;-73
2024/01/08 07:30:17;;;;;;;0.80;0.80;;;;;;;9.59;100.00;95694.56;4984401;28;20054;-71
2024/01/08 07:32:44;;;;;;;0.80;0.80;;;;;;;10.23;100.00;95779.03;4984104;28;20046;-73
2024/01/08 07:35:11;;;;;;;0.80;0.80;;;;;;;9.54;100.00;95681.13;4984742;28;20082;-75
2024/01/08 07:37:38;;;;;;;0.70;0.70;;;;;;;10.15;100.00;95793.25;4984317;28;20101;-75
2024/01/08 07:40:06;;;;;;;0.80;0.80;;;;;;;8.97;100.00;95618.78;4984234;28;20565;-74
2024/01/08 07:42:33;;;;;;;0.80;0.80;;;;;;;10.11;100.00;95798.81;4983843;28;20058;-71
2024/01/08 07:45:00;;;;;;;0.90;0.90;;;;;;;9.99;100.00;95790.88;4984222;28;20065;-68
2024/01/08 07:47:27;;;;;;;0.90;0.90;;;;;;;9.81;100.00;95784.59;4993745;28;20050;-69
2024/01/08 07:49:54;;;;;;;0.80;0.80;;;;;;;9.94;100.00;95802.34;4995325;28;20061;-66
2024/01/08 07:52:21;;;;;;;0.90;0.90;;;;;;;9.97;100.00;95809.88;4995375;28;20057;-66
2024/01/08 07:55:00;;;;;;;0.80;0.80;;;;;;;9.30;100.00;95709.56;4986541;28;20102;-68
2024/01/08 07:57:27;;;;;;;0.80;0.80;;;;;;;9.85;100.00;95795.63;4991011;28;20054;-67
2024/01/08 07:59:53;;;;;;;0.80;0.80;;;;;;;9.96;100.00;95819.34;4994538;28;20465;-69
2024/01/08 08:02:20;;;;;;;0.80;0.80;;;;;;;10.06;100.00;95835.16;5003688;28;20663;-62
2024/01/08 08:04:47;;;;;;;0.80;0.80;;;;;;;10.02;100.00;95834.34;4996480;28;20057;-70
2024/01/08 08:07:14;;;;;;;0.80;0.80;;;;;;;9.70;100.00;95789.34;4998153;28;20141;-67
2024/01/08 08:09:41;;;;;;;0.80;0.80;;;;;;;9.58;100.00;95792.47;5005652;28;20479;-64
2024/01/08 08:12:09;;;;;;;0.80;0.80;;;;;;;9.89;100.00;95830.41;5006182;28;20124;-69
2024/01/08 08:14:36;;;;;;;0.80;0.80;;;;;;;9.91;100.00;95839.09;4996990;28;20054;-67
2024/01/08 08:17:04;;;;;;;0.77;0.77;;;;;;;9.17;100.00;95711.91;4997007;28;20045;-67
2024/01/08 08:19:31;;;;;;;0.80;0.80;;;;;;;9.92;100.00;95857.28;4993909;28;20050;-66
2024/01/08 08:21:58;;;;;;;0.80;0.80;;;;;;;9.63;100.00;95838.28;4987660;28;20694;-73
2024/01/08 08:24:24;;;;;;;0.80;0.80;;;;;;;9.78;100.00;95824.09;4986643;28;20068;-73
2024/01/08 08:26:51;;;;;;;0.85;0.85;;;;;;;9.29;100.00;95724.56;5000185;28;20830;-71
2024/01/08 08:29:18;;;;;;;0.80;0.80;;;;;;;8.06;100.00;95525.63;4987361;28;20485;-71
2024/01/08 08:31:45;;;;;;;0.90;0.90;;;;;;;10.25;100.00;95870.75;4986714;28;20090;-75
2024/01/08 08:34:11;;;;;;;0.70;0.70;;;;;;;9.66;100.00;95771.16;4987092;28;20054;-72
2024/01/08 08:36:39;;;;;;;0.80;0.80;;;;;;;10.39;100.00;95876.25;4986061;28;20046;-70
2024/01/08 08:39:06;;;;;;;0.80;0.80;;;;;;;10.13;100.00;95829.63;4985484;28;20136;-71
2024/01/08 08:41:32;;;;;;;0.90;0.90;;;;;;;9.85;100.00;95785.38;4986093;28;20495;-73
2024/01/08 08:43:59;;;;;;;0.85;0.85;;;;;;;10.48;100.00;95890.47;4991646;28;20156;-73
2024/01/08 08:46:26;;;;;;;0.80;0.80;;;;;;;10.46;100.00;95887.31;4999321;28;20054;-73
2024/01/08 08:48:53;;;;;;;0.88;0.88;;;;;;;10.51;100.00;95889.69;4986558;28;20092;-70
2024/01/08 08:51:20;;;;;;;0.90;0.90;;;;;;;10.59;100.00;95896.00;4987128;28;20065;-71
2024/01/08 08:53:46;;;;;;;0.80;0.80;;;;;;;10.62;100.00;95901.53;4985089;28;20445;-70
2024/01/08 08:56:13;;;;;;;0.70;0.70;;;;;;;10.45;100.00;95890.47;4985985;28;20038;-70
2024/01/08 08:58:40;;;;;;;0.80;0.80;;;;;;;10.59;100.00;95902.31;4989232;28;20054;-70
2024/01/08 09:01:07;;;;;;;0.80;0.80;;;;;;;10.61;100.00;95911.03;5000429;28;20785;-70
2024/01/08 09:03:34;;;;;;;0.80;0.80;;;;;;;9.84;100.00;95789.31;4986549;28;20065;-71
2024/01/08 09:06:07;;;;;;;0.80;0.80;;;;;;;10.61;100.00;95907.47;4986312;28;20437;-71
2024/01/08 09:08:34;;;;;;;0.80;0.80;;;;;;;10.73;100.00;95920.09;4985063;28;20399;-71
2024/01/08 09:11:01;;;;;;;1.00;1.00;;;;;;;10.49;100.00;95897.59;4985755;28;20057;-71
2024/01/08 09:13:28;;;;;;;0.90;0.90;;;;;;;9.63;100.00;95758.91;4984345;28;20054;-71
2024/01/08 09:15:55;;;;;;;0.90;0.90;;;;;;;9.69;100.00;95782.19;4985782;28;20046;-72
2024/01/08 09:18:22;;;;;;;0.80;0.80;;;;;;;10.38;100.00;95877.47;4986133;28;20437;-70
2024/01/08 09:20:49;;;;;;;0.90;0.90;;;;;;;10.14;100.00;95831.22;4985853;28;20125;-71
2024/01/08 09:23:15;;;;;;;0.80;0.80;;;;;;;10.28;100.00;95858.88;4985680;28;20062;-70
2024/01/08 09:25:42;;;;;;;0.80;0.80;;;;;;;10.87;100.00;95934.72;4986202;28;20552;-71
2024/01/08 09:28:09;;;;;;;0.80;0.80;;;;;;;10.90;100.00;95938.66;5004220;28;20068;-70
2024/01/08 09:30:36;;;;;;;0.90;0.90;;;;;;;10.87;100.00;95934.72;5005381;28;20053;-70
2024/01/08 09:33:03;;;;;;;0.85;0.85;;;;;;;10.94;100.00;95934.69;5005378;28;20046;-71
2024/01/08 09:35:30;;;;;;;0.90;0.90;;;;;;;10.32;100.00;95840.28;5005467;28;20054;-70
2024/01/08 09:37:57;;;;;;;1.00;1.00;;;;;;;10.57;100.00;95870.69;4985231;28;20485;-70
2024/01/08 09:40:24;;;;;;;0.80;0.80;;;;;;;11.01;100.00;95939.44;4985646;28;20062;-69
2024/01/08 09:42:53;;;;;;;0.80;0.80;;;;;;;10.99;100.00;95942.59;5002589;28;20089;-72
2024/01/08 09:45:23;;;;;;;0.90;0.90;;;;;;;10.98;100.00;95937.47;5003625;28;20209;-70
2024/01/08 09:47:51;;;;;;;0.88;0.88;;;;;;;10.51;100.00;95889.69;5005142;28;20057;-71
2024/01/08 09:50:20;;;;;;;0.90;0.90;;;;;;;10.70;100.00;95941.88;5004663;28;20085;-69
2024/01/08 09:52:49;;;;;;;0.80;0.80;;;;;;;10.33;100.00;95896.44;4986466;28;20054;-71
2024/01/08 09:55:16;;;;;;;0.82;0.82;;;;;;;10.03;100.00;95841.47;4985406;28;20058;-69
2024/01/08 09:57:45;;;;;;;0.80;0.80;;;;;;;10.70;100.00;95941.88;4985144;28;20055;-69
2024/01/08 10:00:13;;;;;;;0.80;0.80;;;;;;;10.02;100.00;95862.00;5001495;28;20056;-70
2024/01/08 10:02:41;;;;;;;0.90;0.90;;;;;;;10.33;100.00;95927.66;4987062;28;20250;-71
2024/01/08 10:05:08;;;;;;;0.82;0.82;;;;;;;10.54;100.00;95952.56;4985281;28;20137;-69
2024/01/08 10:07:36;;;;;;;0.80;0.80;;;;;;;10.28;100.00;95941.09;5000540;28;20504;-71
2024/01/08 10:10:03;;;;;;;0.80;0.80;;;;;;;10.57;100.00;95953.75;5005326;28;20054;-70
2024/01/08 10:12:32;;;;;;;0.80;0.80;;;;;;;10.08;100.00;95918.56;5004606;28;20053;-70
2024/01/08 10:15:01;;;;;;;0.80;0.80;;;;;;;10.41;100.00;95968.00;5003651;28;20140;-71
2024/01/08 10:17:30;;;;;;;0.80;0.80;;;;;;;10.20;99.42;95933.97;5004654;28;20069;-68
2024/01/08 10:20:11;;;;;;;0.80;0.80;;;;;;;10.06;100.00;95945.00;4996184;28;20056;-68
2024/01/08 10:22:38;;;;;;;0.80;0.80;;;;;;;9.26;100.00;95819.28;5004368;28;20105;-69
2024/01/08 10:25:06;;;;;;;0.80;0.80;;;;;;;9.94;100.00;95954.47;5003447;28;20602;-68
2024/01/08 10:27:33;;;;;;;0.70;0.70;;;;;;;9.34;100.00;95898.25;4989830;28;20046;-69
2024/01/08 10:29:59;;;;;;;0.77;0.77;;;;;;;8.99;100.00;95840.91;4996926;28;20057;-70
2024/01/08 10:32:26;;;;;;;0.75;0.75;;;;;;;9.85;100.00;95978.94;4992445;28;20050;-72
2024/01/08 10:34:55;;;;;;;0.80;0.80;;;;;;;9.05;100.00;95874.47;5000164;28;20061;-68
2024/01/08 10:37:22;;;;;;;0.70;0.70;;;;;;;9.34;100.00;95942.47;4994456;28;20058;-68
2024/01/08 10:39:50;;;;;;;0.70;0.70;;;;;;;9.61;100.00;95979.66;4985017;28;20053;-68
2024/01/08 10:42:18;;;;;;;0.40;0.40;;;;;;;9.71;100.00;95973.38;4984677;28;20235;-77
2024/01/08 10:44:45;;;;;;;0.40;0.40;;;;;;;8.31;100.00;95801.56;4994071;28;20088;-70
2024/01/08 10:47:19;;;;;;;0.40;0.40;;;;;;;9.12;100.00;95968.41;4995676;28;20095;-65
2024/01/08 10:49:58;;;;;;;0.40;0.40;;;;;;;9.03;100.00;95966.00;4991389;28;20049;-68
2024/01/08 10:52:28;;;;;;;0.40;0.40;;;;;;;8.35;100.00;95827.19;4995059;28;20078;-71
2024/01/08 10:54:57;;;;;;;0.40;0.40;;;;;;;8.52;100.00;95854.88;4995689;28;20069;-75
2024/01/08 10:57:41;;;;;;;0.40;0.40;;;;;;;9.45;100.00;95990.28;4318049;28;10001979;-68
2024/01/08 11:00:09;;;;;;;0.45;0.45;;;;;;;9.33;100.00;95996.13;2693991;29;10002025;-69
2024/01/08 11:02:38;;;;;;;0.40;0.40;;;;;;;9.32;100.00;96000.09;4985132;28;20080;-69
2024/01/08 11:05:08;;;;;;;0.50;0.50;;;;;;;9.01;100.00;95984.91;5002410;28;20073;-68
2024/01/08 11:07:39;;;;;;;0.50;0.50;;;;;;;9.20;100.00;96000.41;4993446;28;20501;-68
2024/01/08 11:10:07;;;;;;;0.50;0.50;;;;;;;8.34;100.00;95861.47;5001582;28;20093;-71
2024/01/08 11:12:40;;;;;;;0.40;0.40;;;;;;;8.77;100.00;95962.69;4996309;28;20132;-73
2024/01/08 11:15:07;;;;;;;;;;;;;;;9.05;100.00;96013.38;4997630;28;20142;-73
2024/01/08 11:17:34;;;;;;;0.40;0.40;;;;;;;8.81;100.00;96007.66;4991887;28;19932;-75
2024/01/08 11:20:06;;;;;;;0.40;0.40;;;;;;;8.87;100.00;96011.66;4991388;28;20046;-71
2024/01/08 11:22:37;;;;;;;0.40;0.40;;;;;;;8.80;100.00;96011.63;4987488;28;20137;-72
2024/01/08 11:25:05;;;;;;;0.40;0.40;;;;;;;8.31;100.00;95951.31;4983433;28;20149;-72
2024/01/08 11:27:32;;;;;;;0.40;0.40;;;;;;;8.78;100.00;96011.19;4994757;28;20134;-66
2024/01/08 11:30:03;;;;;;;0.40;0.40;;;;;;;7.74;100.00;95881.06;4987653;28;20069;-74
2024/01/08 11:32:53;;;;;;;0.40;0.40;;;;;;;8.92;100.00;96019.56;4992939;28;20513;-69